Time;durP1;ratioP1;P1;durP2;ratioP2;P2;SDS_P1;SDS_P2;PMS_P1;PMS_P2;Temp;Humidity;BMP_temperature;BMP_pressure;BME280_temperature;BME280_humidity;BME280_pressure;Samples;Min_cycle;Max_cycle;Signal;HPM_P1;HPM_P2
2023/09/12 00:46:27;;;;;;;70.78;39.78;;;19.10;99.90;;;;;;6211405;23;20368;-85
2023/09/12 00:49:19;;;;;;;90.53;41.40;;;18.80;99.90;;;;;;6212076;23;20048;-85
2023/09/12 00:52:11;;;;;;;92.15;41.83;;;19.00;99.90;;;;;;6212848;23;20023;-86
2023/09/12 00:55:26;;;;;;;95.15;41.95;;;19.20;99.90;;;;;;6211847;23;20040;-85
2023/09/12 01:01:02;;;;;;;;;;;;;;;;;;;;;
2023/09/12 01:11:54;;;;;;;70.28;39.22;;;18.90;99.90;;;;;;6211283;23;20341;-86
2023/09/12 01:14:44;;;;;;;82.03;41.10;;;18.90;99.90;;;;;;6217663;23;20022;-84
2023/09/12 01:17:10;;;;;;;88.40;40.38;;;18.90;99.90;;;;;;6218543;23;20012;-85
2023/09/12 01:19:59;;;;;;;96.07;39.88;;;18.90;99.90;;;;;;6218335;23;20031;-84
2023/09/12 01:26:07;;;;;;;78.63;40.35;;;18.50;99.90;;;;;;6183921;23;20017;-85
2023/09/12 01:29:35;;;;;;;71.30;39.00;;;18.90;99.90;;;;;;6157156;23;20021;-85
2023/09/12 01:32:28;;;;;;;86.30;41.15;;;18.70;99.90;;;;;;6011646;23;20051;-85
2023/09/12 01:41:07;;;;;;;75.38;39.85;;;18.60;99.90;;;;;;6180773;23;20055;-86
2023/09/12 01:44:22;;;;;;;74.22;40.53;;;18.50;99.90;;;;;;6183384;23;20019;-85
2023/09/12 01:46:50;;;;;;;87.90;40.22;;;18.50;99.90;;;;;;6158834;23;20017;-86
2023/09/12 01:49:27;;;;;;;101.07;42.28;;;18.50;99.90;;;;;;6158389;23;20009;-85
2023/09/12 02:01:58;;;;;;;75.68;40.28;;;18.40;99.90;;;;;;6210575;23;20326;-85
2023/09/12 02:08:51;;;;;;;92.63;41.83;;;18.00;99.90;;;;;;6212660;23;20029;-85
2023/09/12 02:15:30;;;;;;;85.97;41.17;;;18.10;99.90;;;;;;6152327;23;20519;-86
2023/09/12 02:25:30;;;;;;;84.95;38.75;;;18.20;99.90;;;;;;6214028;23;20019;-85
2023/09/12 02:28:07;;;;;;;73.05;38.55;;;18.30;99.90;;;;;;6213321;23;20108;-85
2023/09/12 02:30:40;;;;;;;78.40;38.92;;;18.20;99.90;;;;;;6186418;23;20051;-85
2023/09/12 02:33:35;;;;;;;73.90;37.45;;;18.20;99.90;;;;;;6187335;23;20024;-86
2023/09/12 02:36:19;;;;;;;83.38;39.42;;;18.20;99.90;;;;;;6214198;23;20479;-85
2023/09/12 02:39:06;;;;;;;71.97;36.70;;;18.20;99.90;;;;;;6186842;23;20024;-86
2023/09/12 02:42:02;;;;;;;102.68;40.25;;;18.10;99.90;;;;;;6214309;23;20095;-85
2023/09/12 02:44:47;;;;;;;72.82;36.58;;;18.10;99.90;;;;;;6214763;23;20445;-86
2023/09/12 02:50:00;;;;;;;85.75;41.80;;;18.10;99.90;;;;;;6216592;23;20445;-85
2023/09/12 02:52:47;;;;;;;85.72;40.75;;;18.10;99.90;;;;;;6188404;23;20033;-85
2023/09/12 02:56:00;;;;;;;77.18;39.15;;;17.80;99.90;;;;;;6188031;23;20476;-86
2023/09/12 02:58:50;;;;;;;78.57;39.88;;;18.00;99.90;;;;;;6216481;23;20017;-86
2023/09/12 03:01:27;;;;;;;76.50;39.13;;;18.00;99.90;;;;;;6188800;23;20415;-85
2023/09/12 03:11:36;;;;;;;77.68;39.25;;;18.00;99.90;;;;;;6120070;23;20119;-86
2023/09/12 03:14:30;;;;;;;78.68;37.25;;;17.90;99.90;;;;;;6123645;23;20033;-86
2023/09/12 03:19:51;;;;;;;79.63;36.75;;;17.90;99.90;;;;;;6214992;22;20043;-85
2023/09/12 03:22:38;;;;;;;;;;;;;;;;;;;;;
2023/09/12 03:25:57;;;;;;;64.70;35.75;;;18.10;99.90;;;;;;6101039;23;20020;-86
2023/09/12 03:32:20;;;;;;;67.90;35.58;;;17.70;99.90;;;;;;6056173;23;20030;-86
2023/09/12 03:35:04;;;;;;;86.28;41.30;;;17.70;99.90;;;;;;6188984;23;20341;-85
2023/09/12 03:38:03;;;;;;;110.68;42.78;;;17.70;99.90;;;;;;6215541;23;20104;-85
2023/09/12 03:41:38;;;;;;;;;;;;;;;;;;;;;
2023/09/12 03:50:31;;;;;;;331.87;47.80;;;17.90;99.90;;;;;;6064790;23;20463;-87
2023/09/12 03:53:27;;;;;;;;;;;;;;;;;;;;;
2023/09/12 04:07:16;;;;;;;400.70;53.75;;;17.70;99.90;;;;;;6061284;23;20433;-85
2023/09/12 04:09:48;;;;;;;320.55;48.90;;;17.80;99.90;;;;;;6187840;23;20054;-86
2023/09/12 04:12:41;;;;;;;286.50;48.53;;;17.90;99.90;;;;;;6215087;23;20076;-85
2023/09/12 04:15:07;;;;;;;170.15;45.78;;;17.90;99.90;;;;;;6189075;23;20167;-86
2023/09/12 04:17:48;;;;;;;362.48;52.22;;;17.90;99.90;;;;;;6187879;23;20458;-85
2023/09/12 04:20:59;;;;;;;;;;;;;;;;;;;;;
2023/09/12 04:27:45;;;;;;;;;;;;;;;;;;;;;
2023/09/12 04:40:32;;;;;;;100.70;38.83;;;17.90;99.90;;;;;;6156792;23;20021;-86
2023/09/12 04:46:54;;;;;;;143.35;38.05;;;17.90;99.90;;;;;;6214269;23;20047;-86
2023/09/12 04:49:29;;;;;;;;;;;17.90;99.90;;;;;;6189734;23;20055;-85
2023/09/12 04:51:55;;;;;;;136.15;36.80;;;17.80;99.90;;;;;;6213623;23;19916;-85
2023/09/12 04:54:32;;;;;;;239.40;40.17;;;17.70;99.90;;;;;;6188325;23;20400;-85
2023/09/12 04:57:35;;;;;;;109.45;36.08;;;17.80;99.90;;;;;;6188286;23;20017;-85
2023/09/12 05:00:55;;;;;;;127.90;37.13;;;17.80;99.90;;;;;;6213990;23;20393;-85
2023/09/12 05:03:30;;;;;;;152.93;38.88;;;17.60;99.90;;;;;;6189891;23;20065;-85
2023/09/12 05:06:27;;;;;;;143.48;36.85;;;17.70;99.90;;;;;;6188664;23;20012;-85
2023/09/12 05:09:05;;;;;;;441.73;51.25;;;17.80;99.90;;;;;;6211707;23;20027;-85
2023/09/12 05:11:36;;;;;;;165.88;38.58;;;17.70;99.90;;;;;;6181436;23;20031;-85
2023/09/12 05:14:11;;;;;;;438.58;52.17;;;17.80;99.90;;;;;;6182796;23;20067;-85
2023/09/12 05:17:03;;;;;;;209.50;38.92;;;17.80;99.90;;;;;;6183158;23;20017;-85
2023/09/12 05:20:00;;;;;;;120.10;32.55;;;17.50;99.90;;;;;;6181501;23;20016;-85
2023/09/12 05:22:43;;;;;;;74.10;30.85;;;17.80;99.90;;;;;;6181375;23;20104;-85
2023/09/12 05:25:12;;;;;;;99.75;31.95;;;17.80;99.90;;;;;;6185248;23;20021;-85
2023/09/12 05:27:46;;;;;;;91.28;30.67;;;17.80;99.90;;;;;;6182235;23;20021;-85
2023/09/12 05:30:19;;;;;;;76.03;31.88;;;17.90;99.90;;;;;;6183324;23;20468;-85
2023/09/12 05:33:00;;;;;;;66.78;30.27;;;17.90;99.90;;;;;;6184992;23;20100;-85
2023/09/12 05:39:35;;;;;;;64.72;29.88;;;17.80;99.90;;;;;;6184800;23;20096;-85
2023/09/12 05:42:53;;;;;;;63.22;29.98;;;17.80;99.90;;;;;;6182704;23;20013;-85
2023/09/12 05:45:43;;;;;;;67.90;31.23;;;17.70;99.90;;;;;;6041100;23;20023;-86
2023/09/12 05:52:08;;;;;;;87.90;30.17;;;17.80;99.90;;;;;;6184786;23;20018;-89
2023/09/12 05:55:02;;;;;;;86.57;30.65;;;17.80;99.90;;;;;;6182247;23;20375;-85
2023/09/12 05:58:20;;;;;;;93.35;31.88;;;17.80;99.90;;;;;;6142010;23;20059;-85
2023/09/12 06:00:59;;;;;;;58.70;30.00;;;17.80;99.90;;;;;;6182434;23;20040;-84
2023/09/12 06:11:05;;;;;;;79.93;31.00;;;17.80;99.90;;;;;;6152797;23;20020;-83
2023/09/12 06:13:50;;;;;;;87.72;32.08;;;17.80;99.90;;;;;;6183705;23;20076;-82
2023/09/12 06:17:06;;;;;;;76.35;31.98;;;17.90;99.90;;;;;;6185105;23;20017;-83
2023/09/12 06:19:58;;;;;;;65.82;30.58;;;18.40;99.90;;;;;;6182062;23;20028;-80
2023/09/12 06:22:24;;;;;;;69.82;31.77;;;18.00;99.90;;;;;;6181220;23;20025;-81
2023/09/12 06:24:51;;;;;;;66.78;30.48;;;17.90;99.90;;;;;;6181071;23;20095;-80
2023/09/12 06:30:13;;;;;;;66.97;30.02;;;18.00;99.90;;;;;;6211118;23;20032;-80
2023/09/12 06:32:39;;;;;;;63.28;29.20;;;18.00;99.90;;;;;;6188179;23;20020;-81
2023/09/12 06:35:05;;;;;;;61.38;29.63;;;18.00;99.90;;;;;;6190295;23;20340;-81
2023/09/12 06:37:31;;;;;;;53.97;28.70;;;18.00;99.90;;;;;;6187324;23;20074;-81
2023/09/12 06:39:56;;;;;;;61.33;29.80;;;18.40;99.90;;;;;;6188681;23;20378;-81
2023/09/12 06:43:09;;;;;;;61.58;30.85;;;18.40;99.90;;;;;;6189171;23;20024;-83
2023/09/12 06:46:04;;;;;;;64.40;31.98;;;18.00;99.90;;;;;;6215612;23;20153;-84
2023/09/12 06:48:37;;;;;;;64.00;31.58;;;17.80;99.90;;;;;;6189614;23;20020;-81
2023/09/12 06:51:23;;;;;;;63.70;31.27;;;18.10;99.90;;;;;;6189699;23;20111;-81
2023/09/12 06:54:01;;;;;;;60.35;30.02;;;18.20;99.90;;;;;;6188635;23;20456;-81
2023/09/12 06:56:42;;;;;;;58.53;30.45;;;18.20;99.90;;;;;;6189664;23;20318;-82
2023/09/12 06:59:50;;;;;;;65.95;30.70;;;18.40;99.90;;;;;;6189060;23;20023;-81
2023/09/12 07:02:37;;;;;;;60.50;30.17;;;18.40;99.90;;;;;;6189881;23;20043;-81
2023/09/12 07:05:04;;;;;;;57.63;30.48;;;18.50;99.90;;;;;;6189933;23;20023;-82
2023/09/12 07:10:06;;;;;;;54.35;28.75;;;18.70;99.90;;;;;;6213430;23;20025;-82
2023/09/12 07:12:34;;;;;;;52.75;28.23;;;18.70;99.90;;;;;;6188335;23;20015;-81
2023/09/12 15:52:19;;;;;;;14.18;8.57;;;24.70;99.90;;;;;;6185022;23;20032;-86
2023/09/12 15:55:52;;;;;;;14.40;7.80;;;24.70;99.90;;;;;;6157248;23;20450;-86
2023/09/12 16:40:19;;;;;;;11.95;7.38;;;23.80;99.90;;;;;;6209063;23;20040;-85
2023/09/12 20:21:36;;;;;;;16.45;9.70;;;19.00;99.90;;;;;;6179500;22;22480;-84
2023/09/12 20:24:25;;;;;;;16.25;10.07;;;19.00;99.90;;;;;;6215412;23;20132;-84
2023/09/12 20:27:17;;;;;;;16.88;9.75;;;19.00;99.90;;;;;;6185730;23;20024;-84
2023/09/12 20:34:23;;;;;;;15.68;10.10;;;19.00;99.90;;;;;;6036019;23;20018;-84
2023/09/12 20:40:31;;;;;;;16.65;10.63;;;18.90;99.90;;;;;;5914043;24;20021;-83
2023/09/12 20:48:01;;;;;;;18.63;11.18;;;18.90;99.90;;;;;;5924160;23;20035;-83
2023/09/12 20:51:27;;;;;;;;;;;;;;;;;;;;;
2023/09/12 20:57:28;;;;;;;;;;;18.90;99.90;;;;;;6141822;23;19919;-83
2023/09/12 21:08:23;;;;;;;;;;;;;;;;;;;;;
2023/09/12 21:11:36;;;;;;;20.27;11.80;;;18.90;99.90;;;;;;6087785;23;20022;-84
2023/09/12 21:54:59;;;;;;;22.40;14.15;;;18.70;99.90;;;;;;5915411;24;20039;-85
2023/09/12 21:58:46;;;;;;;22.38;14.20;;;18.70;99.90;;;;;;5950819;24;20061;-86
2023/09/12 22:02:32;;;;;;;21.92;14.20;;;18.70;99.90;;;;;;5951392;24;20024;-84
2023/09/12 22:09:14;;;;;;;;;;;;;;;;;;;;;
2023/09/12 22:34:10;;;;;;;;;;;;;;;;;;;;;
2023/09/12 22:40:44;;;;;;;22.30;13.85;;;18.50;99.90;;;;;;5931890;24;20032;-83
2023/09/12 22:47:24;;;;;;;22.98;14.35;;;18.40;99.90;;;;;;5951245;24;20021;-83
2023/09/12 22:54:17;;;;;;;23.70;14.23;;;18.40;99.90;;;;;;6005210;23;20113;-84
2023/09/12 22:56:57;;;;;;;;;;;18.50;99.90;;;;;;6011443;23;20027;-83
2023/09/12 23:00:29;;;;;;;24.58;14.95;;;18.40;99.90;;;;;;6032839;23;20327;-83
2023/09/12 23:03:12;;;;;;;22.33;14.02;;;18.40;99.90;;;;;;5954984;24;20080;-83
2023/09/12 23:06:02;;;;;;;24.35;15.23;;;18.40;99.90;;;;;;5979205;24;20022;-83
2023/09/12 23:12:38;;;;;;;25.15;15.50;;;18.00;99.90;;;;;;6040638;23;20062;-83
2023/09/12 23:15:57;;;;;;;28.02;15.15;;;18.30;99.90;;;;;;6043032;23;20448;-83
2023/09/12 23:18:24;;;;;;;25.95;15.57;;;18.20;99.90;;;;;;6040961;23;20019;-83
2023/09/12 23:21:52;;;;;;;;;;;;;;;;;;;;;
2023/09/12 23:24:55;;;;;;;25.92;15.63;;;18.20;99.90;;;;;;6055096;23;20082;-82
2023/09/12 23:27:38;;;;;;;25.15;15.85;;;18.20;99.90;;;;;;6042732;23;20039;-82
2023/09/12 23:30:19;;;;;;;27.60;16.50;;;18.20;99.90;;;;;;6064962;23;20104;-82
2023/09/12 23:32:45;;;;;;;28.90;17.33;;;18.20;99.90;;;;;;6158676;23;20009;-82
2023/09/12 23:35:29;;;;;;;26.05;16.10;;;18.10;99.90;;;;;;6159613;23;20020;-82
2023/09/12 23:37:55;;;;;;;28.42;15.95;;;18.20;99.90;;;;;;6158268;23;20013;-82
2023/09/12 23:40:59;;;;;;;27.90;16.10;;;18.10;99.90;;;;;;6160635;23;20025;-83
2023/09/12 23:43:24;;;;;;;25.40;15.73;;;17.90;99.90;;;;;;6042164;23;20102;-83
2023/09/12 23:46:11;;;;;;;27.73;16.77;;;18.10;99.90;;;;;;6099364;23;20053;-82
2023/09/12 23:48:37;;;;;;;28.92;16.17;;;18.20;99.90;;;;;;6159028;23;20025;-82
2023/09/12 23:51:03;;;;;;;30.63;16.48;;;18.10;99.90;;;;;;6159532;23;20084;-82
2023/09/12 23:53:34;;;;;;;31.65;17.08;;;18.20;99.90;;;;;;6158685;23;20445;-82
2023/09/12 23:56:01;;;;;;;29.30;17.00;;;18.20;99.90;;;;;;6159557;23;20017;-82
2023/09/12 23:58:38;;;;;;;32.78;17.55;;;18.20;99.90;;;;;;6159319;23;20100;-82
